Strona główna
METAR-TAF:

METAR-TAF

Lotnisko :

Port lotniczy Kair

Kair, Egipt

Szerokość geograficzna: 30-08N, Długość geograficzna: 031-24E, wysokość: 64 m

Aktualna obserwacja pogody

Raport powstał 32 minut temu, godzina 14:00 UTC
Wiatr 12 kt od północ
Temperatura 35°C
Wilgotność 32%
Ciśnienie 1008 hPa
Widzialność 10 km lub więcej
Rozproszone chmury na wysokości 2500 ft

METAR: HECA 191400Z 35012KT 9999 SCT025 35/16 Q1008 NOSIG

czas: 16:32 (14:32 UTC)

Prognoza

Raport powstał 3 godziny i 32 minut temu, godzina 11:00 UTC
Prognoza ważna od 19 godzina 12 UTC do 20 godzina 18 UTC
Wiatr 9 kt od północny wschód
Widzialność 10 km lub więcej
Brak chmur poniżej 1500 m i brak chmur cumulonimbus
Przejściowo
od 19 godzina 16 UTC do 19 godzina 22 UTC
Wiatr 12 kt od północno-północny wschód w porywach dochodzący do 30 kt
Prawdopodobieństwo 40%
od 19 godzina 00 UTC do 19 godzina 06 UTC
Wiatr 3 kt z kierunków zmiennych
Widzialność: 4000 m
zamglenie

TAF: HECA 191100Z 1912/2018 05009KT CAVOK TEMPO 1916/1922 02012G30KT PROB40 1900/1906 VRB03KT 4000 BR NSC

Obserwacja i prognoza pogody dla ponad 4000 lotnisk (raport METAR i TAF).

Dostępne stacje oznaczono żółtymi i czerwonymi punktami na mapie.

Najedź kursorem aby zobaczyć nazwę stacji.

Kliknij aby zobaczyć obserwacje i prognozy pogody.

Aby zmienić mapę: kliknij na zielony przycisk z czarnym krzyżykiem, aby powiększyć; na zielony przycisk z myślnikiem, aby pomniejszyć; na zielone strzałki, aby przejść do map sąsiednich.


METAR-TAF: